createdAt,value
2022-11-05T00:00:43.247Z,13.21
2022-11-05T00:01:43.186Z,13.2
2022-11-05T00:02:43.170Z,13.18
2022-11-05T00:03:43.170Z,13.15
2022-11-05T00:04:43.185Z,13.12
2022-11-05T00:05:43.186Z,13.1
2022-11-05T00:06:43.171Z,13.08
2022-11-05T00:07:43.185Z,13.02
2022-11-05T00:08:52.444Z,12.98
2022-11-05T00:09:43.186Z,12.95
2022-11-05T00:10:43.172Z,12.93
2022-11-05T00:11:43.186Z,12.89
2022-11-05T00:12:43.187Z,12.87
2022-11-05T00:13:43.187Z,12.86
2022-11-05T00:14:43.173Z,12.83
2022-11-05T00:15:43.188Z,12.84
2022-11-05T00:16:43.188Z,12.85
2022-11-05T00:17:43.188Z,12.87
2022-11-05T00:18:43.174Z,12.88
2022-11-05T00:19:43.189Z,12.9
2022-11-05T00:20:43.189Z,12.95
2022-11-05T00:21:43.189Z,12.99
2022-11-05T00:22:43.175Z,12.99
2022-11-05T00:23:43.190Z,13
2022-11-05T00:24:43.191Z,13.02
2022-11-05T00:25:43.175Z,13.02
2022-11-05T00:26:43.177Z,12.99
2022-11-05T00:27:43.191Z,12.96
2022-11-05T00:28:43.191Z,12.94
2022-11-05T00:29:43.176Z,12.93
2022-11-05T00:30:43.191Z,12.92
2022-11-05T00:31:43.191Z,12.91
2022-11-05T00:32:43.192Z,12.93
2022-11-05T00:33:43.177Z,12.95
2022-11-05T00:34:43.192Z,12.96
2022-11-05T00:35:43.192Z,12.96
2022-11-05T00:36:43.192Z,12.98
2022-11-05T00:37:43.178Z,12.99
2022-11-05T00:38:43.192Z,12.99
2022-11-05T00:39:43.194Z,13.01
2022-11-05T00:40:43.192Z,13.04
2022-11-05T00:41:43.180Z,13.08
2022-11-05T00:42:43.193Z,13.12
2022-11-05T00:43:43.194Z,13.14
2022-11-05T00:44:43.180Z,13.17
2022-11-05T00:45:43.180Z,13.18
2022-11-05T00:46:43.195Z,13.17
2022-11-05T00:47:43.196Z,13.16
2022-11-05T00:48:43.181Z,13.14
2022-11-05T00:49:43.181Z,13.11
2022-11-05T00:50:43.196Z,13.1
2022-11-05T00:51:43.196Z,13.11
2022-11-05T00:52:43.182Z,13.12
2022-11-05T00:53:43.195Z,13.1
2022-11-05T00:54:43.197Z,13.1
2022-11-05T00:55:43.197Z,13.1
2022-11-05T00:56:43.182Z,13.11
2022-11-05T00:57:43.196Z,13.12
2022-11-05T00:58:43.200Z,13.11
2022-11-05T00:59:43.198Z,13.11
2022-11-05T01:00:43.183Z,13.11
2022-11-05T01:01:43.197Z,13.08
2022-11-05T01:02:43.198Z,13.05
2022-11-05T01:03:43.199Z,13.05
2022-11-05T01:04:43.184Z,13.08
2022-11-05T01:05:43.207Z,13.1
2022-11-05T01:06:43.199Z,13.13
2022-11-05T01:07:43.185Z,13.16
2022-11-05T01:08:43.185Z,13.17
2022-11-05T01:09:43.200Z,13.17
2022-11-05T01:10:43.200Z,13.16
2022-11-05T01:11:43.186Z,13.16
2022-11-05T01:12:43.200Z,13.16
2022-11-05T01:13:43.201Z,13.16
2022-11-05T01:14:43.201Z,13.18
2022-11-05T01:15:43.187Z,13.21
2022-11-05T01:16:43.202Z,13.22
2022-11-05T01:17:43.202Z,13.25
2022-11-05T01:18:43.202Z,13.26
2022-11-05T01:19:43.188Z,13.26
2022-11-05T01:20:43.202Z,13.24
2022-11-05T01:21:43.203Z,13.23
2022-11-05T01:22:43.203Z,13.23
2022-11-05T01:23:43.188Z,13.22
2022-11-05T01:24:43.202Z,13.19
2022-11-05T01:25:43.204Z,13.15
2022-11-05T01:26:43.189Z,13.13
2022-11-05T01:27:43.189Z,13.11
2022-11-05T01:28:43.204Z,13.08
2022-11-05T01:29:43.204Z,13.05
2022-11-05T01:30:43.190Z,13.05
2022-11-05T01:31:43.190Z,13.07
2022-11-05T01:32:43.205Z,13.1
2022-11-05T01:33:43.204Z,13.15
2022-11-05T01:34:43.191Z,13.2
2022-11-05T01:35:43.206Z,13.23
2022-11-05T01:36:43.206Z,13.24
2022-11-05T01:37:43.206Z,13.25
2022-11-05T01:38:43.192Z,13.26
2022-11-05T01:39:43.206Z,13.26
2022-11-05T01:40:43.232Z,13.28
2022-11-05T01:41:43.206Z,13.3
2022-11-05T01:42:43.193Z,13.31
2022-11-05T01:43:43.207Z,13.3
2022-11-05T01:44:43.208Z,13.3
2022-11-05T01:45:43.208Z,13.29
2022-11-05T01:46:43.194Z,13.27
2022-11-05T01:47:43.209Z,13.26
2022-11-05T01:48:52.468Z,13.29
2022-11-05T01:49:43.196Z,13.33
2022-11-05T01:50:43.195Z,13.33
2022-11-05T01:51:43.209Z,13.32
2022-11-05T01:52:43.211Z,13.33
2022-11-05T01:53:43.195Z,13.35
2022-11-05T01:54:43.273Z,13.37
2022-11-05T01:55:43.210Z,13.39
2022-11-05T01:56:43.210Z,13.42
2022-11-05T01:57:43.196Z,13.44
2022-11-05T01:58:43.210Z,13.4
2022-11-05T01:59:43.211Z,13.35
2022-11-05T02:00:43.212Z,13.33
2022-11-05T02:01:43.197Z,13.33
2022-11-05T02:02:43.212Z,13.3
2022-11-05T02:03:43.212Z,13.25
2022-11-05T02:04:43.213Z,13.21
2022-11-05T02:05:43.198Z,13.16
2022-11-05T02:06:43.213Z,13.13
2022-11-05T02:07:43.214Z,13.11
2022-11-05T02:08:43.213Z,13.09
2022-11-05T02:10:43.214Z,13.12
2022-11-05T02:11:43.214Z,13.17
2022-11-05T02:12:43.200Z,13.21
2022-11-05T02:13:43.200Z,13.23
2022-11-05T02:14:43.214Z,13.25
2022-11-05T02:15:43.216Z,13.28
2022-11-05T02:16:43.201Z,13.31
2022-11-05T02:17:43.215Z,13.34
2022-11-05T02:18:43.216Z,13.37
2022-11-05T02:19:43.215Z,13.39
2022-11-05T02:20:43.201Z,13.43
2022-11-05T02:21:43.215Z,13.45
2022-11-05T02:22:43.217Z,13.47
2022-11-05T02:23:43.217Z,13.47
2022-11-05T02:24:43.202Z,13.46
2022-11-05T02:25:43.216Z,13.47
2022-11-05T02:26:43.219Z,13.48
2022-11-05T02:27:43.218Z,13.49
2022-11-05T02:28:43.203Z,13.51
2022-11-05T02:29:43.217Z,13.53
2022-11-05T02:30:43.218Z,13.56
2022-11-05T02:31:43.204Z,13.61
2022-11-05T02:32:43.204Z,13.62
2022-11-05T02:33:43.219Z,13.61
2022-11-05T02:34:43.219Z,13.62
2022-11-05T02:35:43.205Z,13.62
2022-11-05T02:36:43.205Z,13.61
2022-11-05T02:37:43.219Z,13.59
2022-11-05T02:38:43.220Z,13.58
2022-11-05T02:39:43.206Z,13.57
2022-11-05T02:40:43.220Z,13.54
2022-11-05T02:41:43.220Z,13.5
2022-11-05T02:42:43.221Z,13.46
2022-11-05T02:43:43.207Z,13.43
2022-11-05T02:44:43.222Z,13.4
2022-11-05T02:45:43.247Z,13.39
2022-11-05T02:46:43.222Z,13.37
2022-11-05T02:47:43.208Z,13.36
2022-11-05T02:48:43.223Z,13.34
2022-11-05T02:49:43.224Z,13.33
2022-11-05T02:50:43.223Z,13.33
2022-11-05T02:51:43.209Z,13.34
2022-11-05T02:52:43.248Z,13.36
2022-11-05T02:53:43.225Z,13.39
2022-11-05T02:54:43.209Z,13.42
2022-11-05T02:55:43.210Z,13.42
2022-11-05T02:56:43.224Z,13.43
2022-11-05T02:57:43.226Z,13.45
2022-11-05T02:58:43.211Z,13.43
2022-11-05T02:59:43.225Z,13.4
2022-11-05T03:00:43.225Z,13.38
2022-11-05T03:01:43.225Z,13.38
2022-11-05T03:02:43.211Z,13.36
2022-11-05T03:03:43.225Z,13.33
2022-11-05T03:04:43.226Z,13.3
2022-11-05T03:05:43.227Z,13.28
2022-11-05T03:06:43.212Z,13.26
2022-11-05T03:07:43.226Z,13.24
2022-11-05T03:08:43.228Z,13.24
2022-11-05T03:09:43.226Z,13.27
2022-11-05T03:10:43.213Z,13.28
2022-11-05T03:11:43.227Z,13.26
2022-11-05T03:12:43.229Z,13.26
2022-11-05T03:13:43.214Z,13.27
2022-11-05T03:14:43.215Z,13.25
2022-11-05T03:15:43.229Z,13.23
2022-11-05T03:16:43.229Z,13.23
2022-11-05T03:17:43.215Z,13.25
2022-11-05T03:18:43.217Z,13.25
2022-11-05T03:19:43.230Z,13.24
2022-11-05T03:20:43.277Z,13.26
2022-11-05T03:21:43.215Z,13.28
2022-11-05T03:22:43.230Z,13.28
2022-11-05T03:23:43.230Z,13.28
2022-11-05T03:24:43.230Z,13.25
2022-11-05T03:25:43.218Z,13.25
2022-11-05T03:26:43.230Z,13.26
2022-11-05T03:27:43.283Z,13.27
2022-11-05T03:28:52.489Z,13.28
2022-11-05T03:29:43.217Z,13.29
2022-11-05T03:30:43.231Z,13.3
2022-11-05T03:31:43.232Z,13.33
2022-11-05T03:32:43.233Z,13.36
2022-11-05T03:33:43.218Z,13.37
2022-11-05T03:34:43.232Z,13.38
2022-11-05T03:35:43.233Z,13.38
2022-11-05T03:36:43.219Z,13.4
2022-11-05T03:37:43.219Z,13.39
2022-11-05T03:38:43.234Z,13.37
2022-11-05T03:39:43.234Z,13.35
2022-11-05T03:40:43.220Z,13.31
2022-11-05T03:41:43.220Z,13.26
2022-11-05T03:42:43.235Z,13.22
2022-11-05T03:43:43.235Z,13.19
2022-11-05T03:44:43.221Z,13.17
2022-11-05T03:45:43.235Z,13.16
2022-11-05T03:46:43.236Z,13.17
2022-11-05T03:47:43.235Z,13.19
2022-11-05T03:48:43.222Z,13.2
2022-11-05T03:49:43.236Z,13.19
2022-11-05T03:50:43.262Z,13.22
2022-11-05T03:51:43.236Z,13.27
2022-11-05T03:52:43.224Z,13.32
2022-11-05T03:53:43.238Z,13.35
2022-11-05T03:54:43.238Z,13.39
2022-11-05T03:55:43.238Z,13.44
2022-11-05T03:56:43.224Z,13.48
2022-11-05T03:57:43.238Z,13.51
2022-11-05T03:58:43.240Z,13.52
2022-11-05T03:59:43.224Z,13.54
2022-11-05T04:00:43.226Z,13.55
2022-11-05T04:01:43.239Z,13.57
2022-11-05T04:02:43.241Z,13.58
2022-11-05T04:03:43.225Z,13.59
2022-11-05T04:04:43.288Z,13.58
2022-11-05T04:05:43.240Z,13.57
2022-11-05T04:06:43.241Z,13.57
2022-11-05T04:07:43.228Z,13.54
2022-11-05T04:08:43.240Z,13.5
2022-11-05T04:09:43.241Z,13.45
2022-11-05T04:10:43.240Z,13.39
2022-11-05T04:11:43.227Z,13.34
2022-11-05T04:12:43.242Z,13.28
2022-11-05T04:13:43.243Z,13.24
2022-11-05T04:14:43.242Z,13.21
2022-11-05T04:15:43.230Z,13.18
2022-11-05T04:16:43.242Z,13.14
2022-11-05T04:17:43.243Z,13.13
2022-11-05T04:18:43.243Z,13.15
2022-11-05T04:19:43.229Z,13.15
2022-11-05T04:20:43.244Z,13.15
2022-11-05T04:21:43.245Z,13.16
2022-11-05T04:22:43.229Z,13.15
2022-11-05T04:23:43.230Z,13.12
2022-11-05T04:24:43.245Z,13.1
2022-11-05T04:25:43.245Z,13.1
2022-11-05T04:26:43.230Z,13.12
2022-11-05T04:27:43.245Z,13.11
2022-11-05T04:28:43.245Z,13.09
2022-11-05T04:29:43.246Z,13.07
2022-11-05T04:30:43.231Z,13.06
2022-11-05T04:31:43.245Z,13.04
2022-11-05T04:32:43.246Z,13.03
2022-11-05T04:33:43.247Z,13.04
2022-11-05T04:34:43.232Z,13.04
2022-11-05T04:35:43.247Z,13.04
2022-11-05T04:36:43.247Z,13.06
2022-11-05T04:37:43.248Z,13.09
2022-11-05T04:38:43.233Z,13.12
2022-11-05T04:39:43.247Z,13.13
2022-11-05T04:40:43.249Z,13.16
2022-11-05T04:41:43.236Z,13.2
2022-11-05T04:42:43.234Z,13.22
2022-11-05T04:43:43.249Z,13.22
2022-11-05T04:44:43.249Z,13.2
2022-11-05T04:45:43.235Z,13.16
2022-11-05T04:46:43.298Z,13.11
2022-11-05T04:47:43.250Z,13.09
2022-11-05T04:48:43.250Z,13.07
2022-11-05T04:49:43.236Z,13.06
2022-11-05T04:50:43.250Z,13.05
2022-11-05T04:51:43.251Z,13.05
2022-11-05T04:52:43.251Z,13.07
2022-11-05T04:53:43.237Z,13.08
2022-11-05T04:54:43.251Z,13.09
2022-11-05T04:55:43.252Z,13.12
2022-11-05T04:56:43.251Z,13.16
2022-11-05T04:57:43.238Z,13.2
2022-11-05T04:58:43.252Z,13.24
2022-11-05T04:59:43.253Z,13.27
2022-11-05T05:00:43.252Z,13.3
2022-11-05T05:01:43.240Z,13.31
2022-11-05T05:02:43.253Z,13.29
2022-11-05T05:03:43.254Z,13.27
2022-11-05T05:04:43.241Z,13.26
2022-11-05T05:05:43.241Z,13.24
2022-11-05T05:06:43.254Z,13.21
2022-11-05T05:07:43.318Z,13.19
2022-11-05T05:08:52.501Z,13.17
2022-11-05T05:09:43.255Z,13.15
2022-11-05T05:10:43.255Z,13.14
2022-11-05T05:11:43.254Z,13.15
2022-11-05T05:12:43.241Z,13.15
2022-11-05T05:13:43.255Z,13.14
2022-11-05T05:14:43.256Z,13.13
2022-11-05T05:15:43.255Z,13.14
2022-11-05T05:16:43.242Z,13.12
2022-11-05T05:17:43.257Z,13.09
2022-11-05T05:18:43.258Z,13.08
2022-11-05T05:19:43.256Z,13.08
2022-11-05T05:20:43.243Z,13.08
2022-11-05T05:21:43.257Z,13.06
2022-11-05T05:22:43.259Z,13.04
2022-11-05T05:23:43.243Z,13.03
2022-11-05T05:24:43.244Z,13.01
2022-11-05T05:25:43.259Z,12.98
2022-11-05T05:26:43.260Z,12.96
2022-11-05T05:27:43.244Z,12.95
2022-11-05T05:28:43.245Z,12.95
2022-11-05T05:29:43.260Z,12.95
2022-11-05T05:30:43.323Z,12.93
2022-11-05T05:31:43.245Z,12.92
2022-11-05T05:32:43.259Z,12.88
2022-11-05T05:33:43.260Z,12.86
2022-11-05T05:34:43.261Z,12.83
2022-11-05T05:35:43.246Z,12.81
2022-11-05T05:36:43.261Z,12.81
2022-11-05T05:37:43.260Z,12.83
2022-11-05T05:38:43.261Z,12.87
2022-11-05T05:39:43.247Z,12.9
2022-11-05T05:40:43.261Z,12.91
2022-11-05T05:41:43.263Z,12.91
2022-11-05T05:42:43.262Z,12.89
2022-11-05T05:43:43.248Z,12.87
2022-11-05T05:44:43.310Z,12.85
2022-11-05T05:45:43.264Z,12.84
2022-11-05T05:46:43.250Z,12.84
2022-11-05T05:47:43.251Z,12.84
2022-11-05T05:48:43.264Z,12.86
2022-11-05T05:49:43.265Z,12.87
2022-11-05T05:51:43.264Z,12.86
2022-11-05T05:52:43.265Z,12.84
2022-11-05T05:53:43.264Z,12.82
2022-11-05T05:54:43.250Z,12.81
2022-11-05T05:55:43.264Z,12.79
2022-11-05T05:56:43.266Z,12.77
2022-11-05T05:57:43.266Z,12.76
2022-11-05T05:58:43.251Z,12.76
2022-11-05T05:59:43.265Z,12.75
2022-11-05T06:00:43.267Z,12.78
2022-11-05T06:01:43.267Z,12.81
2022-11-05T06:02:43.252Z,12.84
2022-11-05T06:03:43.266Z,12.86
2022-11-05T06:04:43.268Z,12.86
2022-11-05T06:05:43.255Z,12.86
2022-11-05T06:06:43.253Z,12.87
2022-11-05T06:07:43.268Z,12.86
2022-11-05T06:08:43.268Z,12.86
2022-11-05T06:09:43.256Z,12.88
2022-11-05T06:10:43.256Z,12.87
2022-11-05T06:11:43.269Z,12.86
2022-11-05T06:12:43.293Z,12.88
2022-11-05T06:13:43.255Z,12.92
2022-11-05T06:14:43.269Z,12.96
2022-11-05T06:15:43.269Z,12.99
2022-11-05T06:16:43.270Z,13.03
2022-11-05T06:17:43.256Z,13.07
2022-11-05T06:18:43.270Z,13.09
2022-11-05T06:19:43.322Z,13.07
2022-11-05T06:20:43.271Z,13.07
2022-11-05T06:21:43.257Z,13.05
2022-11-05T06:22:43.271Z,13.03
2022-11-05T06:23:43.272Z,13.03
2022-11-05T06:24:43.271Z,13.08
2022-11-05T06:25:43.259Z,13.11
2022-11-05T06:26:43.320Z,13.12
2022-11-05T06:27:43.273Z,13.14
2022-11-05T06:28:43.260Z,13.17
2022-11-05T06:29:43.260Z,13.19
2022-11-05T06:30:43.273Z,13.18
2022-11-05T06:31:43.274Z,13.19
2022-11-05T06:32:43.259Z,13.19
2022-11-05T06:33:43.273Z,13.18
2022-11-05T06:34:43.274Z,13.18
2022-11-05T06:35:43.275Z,13.2
2022-11-05T06:36:43.260Z,13.21
2022-11-05T06:37:43.274Z,13.2
2022-11-05T06:38:43.274Z,13.17
2022-11-05T06:39:43.275Z,13.17
2022-11-05T06:40:43.275Z,13.16
2022-11-05T06:41:43.275Z,13.13
2022-11-05T06:42:43.277Z,13.13
2022-11-05T06:43:43.276Z,13.14
2022-11-05T06:44:43.262Z,13.15
2022-11-05T06:45:43.276Z,13.16
2022-11-05T06:46:43.278Z,13.19
2022-11-05T06:48:52.520Z,13.2
2022-11-05T06:49:43.278Z,13.21
2022-11-05T06:50:43.279Z,13.23
2022-11-05T06:51:43.265Z,13.27
2022-11-05T06:52:43.264Z,13.3
2022-11-05T06:53:43.279Z,13.33
2022-11-05T06:54:43.279Z,13.35
2022-11-05T06:55:43.266Z,13.34
2022-11-05T06:56:43.279Z,13.31
2022-11-05T06:57:43.280Z,13.28
2022-11-05T06:58:43.279Z,13.27
2022-11-05T06:59:43.267Z,13.24
2022-11-05T07:00:43.279Z,13.2
2022-11-05T07:01:43.279Z,13.2
2022-11-05T07:02:43.281Z,13.2
2022-11-05T07:03:43.266Z,13.21
2022-11-05T07:04:43.280Z,13.19
2022-11-05T07:05:43.282Z,13.18
2022-11-05T07:06:43.282Z,13.19
2022-11-05T07:07:43.269Z,13.2
2022-11-05T07:08:43.282Z,13.21
2022-11-05T07:09:43.283Z,13.25
2022-11-05T07:10:43.269Z,13.31
2022-11-05T07:11:43.270Z,13.34
2022-11-05T07:12:43.283Z,13.36
2022-11-05T07:13:43.283Z,13.41
2022-11-05T07:14:43.270Z,13.45
2022-11-05T07:15:43.271Z,13.47
2022-11-05T07:16:43.284Z,13.51
2022-11-05T07:17:43.283Z,13.54
2022-11-05T07:18:43.270Z,13.56
2022-11-05T07:19:43.284Z,13.55
2022-11-05T07:20:43.284Z,13.54
2022-11-05T07:21:43.285Z,13.53
2022-11-05T07:22:43.272Z,13.5
2022-11-05T07:23:43.285Z,13.47
2022-11-05T07:24:43.287Z,13.45
2022-11-05T07:25:43.285Z,13.47
2022-11-05T07:26:43.271Z,13.47
2022-11-05T07:27:43.286Z,13.46
2022-11-05T07:28:43.288Z,13.48
2022-11-05T07:29:43.287Z,13.52
2022-11-05T07:30:43.275Z,13.53
2022-11-05T07:31:43.287Z,13.55
2022-11-05T07:32:43.289Z,13.56
2022-11-05T07:33:43.275Z,13.57
2022-11-05T07:34:43.276Z,13.55
2022-11-05T07:35:43.287Z,13.53
2022-11-05T07:36:43.288Z,13.53
2022-11-05T07:37:43.274Z,13.51
2022-11-05T07:38:43.288Z,13.51
2022-11-05T07:39:43.289Z,13.49
2022-11-05T07:40:43.289Z,13.47
2022-11-05T07:41:43.277Z,13.45
2022-11-05T07:42:43.290Z,13.42
2022-11-05T07:43:43.290Z,13.4
2022-11-05T07:44:43.289Z,13.4
2022-11-05T07:45:43.279Z,13.4
2022-11-05T07:46:43.290Z,13.39
2022-11-05T07:47:43.291Z,13.39
2022-11-05T07:48:43.291Z,13.42
2022-11-05T07:49:43.279Z,13.45
2022-11-05T07:50:43.291Z,13.48
2022-11-05T07:51:43.293Z,13.51
2022-11-05T07:52:43.279Z,13.52
2022-11-05T07:53:43.280Z,13.52
2022-11-05T07:54:43.293Z,13.52
2022-11-05T07:55:43.293Z,13.53
2022-11-05T07:56:43.280Z,13.56
2022-11-05T07:57:43.280Z,13.59
2022-11-05T07:58:43.294Z,13.63
2022-11-05T07:59:43.293Z,13.7
2022-11-05T08:00:43.281Z,13.76
2022-11-05T08:01:43.294Z,13.82
2022-11-05T08:02:43.294Z,13.87
2022-11-05T08:03:43.295Z,13.9
2022-11-05T08:04:43.282Z,13.93
2022-11-05T08:05:43.294Z,13.95
2022-11-05T08:06:43.296Z,13.98
2022-11-05T08:07:43.296Z,14.05
2022-11-05T08:08:43.284Z,14.07
2022-11-05T08:09:43.295Z,14.09
2022-11-05T08:10:43.297Z,14.17
2022-11-05T08:11:43.297Z,14.26
2022-11-05T08:12:43.285Z,14.34
2022-11-05T08:13:43.297Z,14.42
2022-11-05T08:14:43.298Z,14.52
2022-11-05T08:15:43.284Z,14.63
2022-11-05T08:16:43.285Z,14.71
2022-11-05T08:17:43.298Z,14.81
2022-11-05T08:18:43.298Z,14.96
2022-11-05T08:19:43.285Z,15.15
2022-11-05T08:20:43.298Z,15.35
2022-11-05T08:21:43.299Z,15.5
2022-11-05T08:22:43.298Z,15.66
2022-11-05T08:23:43.287Z,15.79
2022-11-05T08:24:43.299Z,15.86
2022-11-05T08:25:43.299Z,15.91
2022-11-05T08:26:43.299Z,15.92
2022-11-05T08:27:43.288Z,15.89
2022-11-05T08:28:52.558Z,15.8
2022-11-05T08:29:43.302Z,15.72
2022-11-05T08:30:43.300Z,15.67
2022-11-05T08:31:43.290Z,15.59
2022-11-05T08:32:43.301Z,15.52
2022-11-05T08:33:43.303Z,15.46
2022-11-05T08:34:43.289Z,15.38
2022-11-05T08:35:43.291Z,15.29
2022-11-05T08:36:43.303Z,15.19
2022-11-05T08:37:43.303Z,15.1
2022-11-05T08:38:43.291Z,15.02
2022-11-05T08:39:43.291Z,14.96
2022-11-05T08:40:43.304Z,14.92
2022-11-05T08:41:43.304Z,14.91
2022-11-05T08:42:43.292Z,14.89
2022-11-05T08:43:43.304Z,14.87
2022-11-05T08:44:43.304Z,14.88
2022-11-05T08:45:43.304Z,14.91
2022-11-05T08:46:43.293Z,14.9
2022-11-05T08:47:43.305Z,14.86
2022-11-05T08:48:43.305Z,14.84
2022-11-05T08:50:43.294Z,14.85
2022-11-05T08:51:43.306Z,14.8
2022-11-05T08:52:43.308Z,14.74
2022-11-05T08:53:43.307Z,14.71
2022-11-05T08:54:43.295Z,14.69
2022-11-05T08:55:43.307Z,14.66
2022-11-05T08:56:43.308Z,14.62
2022-11-05T08:57:43.295Z,14.57
2022-11-05T08:58:43.296Z,14.52
2022-11-05T08:59:43.309Z,14.48
2022-11-05T09:00:43.309Z,14.45
2022-11-05T09:01:43.296Z,14.44
2022-11-05T09:02:43.334Z,14.43
2022-11-05T09:03:43.310Z,14.41
2022-11-05T09:04:43.310Z,14.41
2022-11-05T09:05:43.297Z,14.4
2022-11-05T09:06:43.310Z,14.41
2022-11-05T09:07:43.311Z,14.42
2022-11-05T09:08:43.311Z,14.45
2022-11-05T09:09:43.298Z,14.46
2022-11-05T09:10:43.311Z,14.47
2022-11-05T09:11:43.313Z,14.51
2022-11-05T09:12:43.311Z,14.59
2022-11-05T09:13:43.299Z,14.65
2022-11-05T09:14:43.312Z,14.7
2022-11-05T09:15:43.313Z,14.79
2022-11-05T09:16:43.313Z,14.87
2022-11-05T09:17:43.302Z,14.91
2022-11-05T09:18:43.314Z,14.9
2022-11-05T09:19:43.315Z,14.9
2022-11-05T09:20:43.301Z,14.93
2022-11-05T09:21:43.302Z,14.93
2022-11-05T09:22:43.315Z,14.93
2022-11-05T09:23:43.316Z,14.94
2022-11-05T09:24:43.302Z,14.94
2022-11-05T09:25:43.315Z,14.9
2022-11-05T09:26:43.316Z,14.86
2022-11-05T09:27:43.316Z,14.87
2022-11-05T09:28:43.303Z,14.87
2022-11-05T09:29:43.316Z,14.84
2022-11-05T09:30:43.317Z,14.79
2022-11-05T09:31:43.317Z,14.76
2022-11-05T09:32:43.304Z,14.75
2022-11-05T09:33:43.317Z,14.74
2022-11-05T09:34:43.318Z,14.75
2022-11-05T09:35:43.317Z,14.79
2022-11-05T09:36:43.305Z,14.84
2022-11-05T09:37:43.319Z,14.9
2022-11-05T09:38:43.320Z,14.96
2022-11-05T09:39:43.306Z,15.02
2022-11-05T09:40:43.307Z,15.03
2022-11-05T09:41:43.320Z,15.06
2022-11-05T09:42:43.321Z,15.07
2022-11-05T09:43:43.307Z,15.04
2022-11-05T09:44:43.307Z,14.99
2022-11-05T09:45:43.321Z,14.96
2022-11-05T09:46:43.321Z,14.98
2022-11-05T09:47:43.307Z,15
2022-11-05T09:48:43.322Z,15.04
2022-11-05T09:49:43.321Z,15.08
2022-11-05T09:50:43.321Z,15.15
2022-11-05T09:51:43.309Z,15.17
2022-11-05T09:52:43.323Z,15.15
2022-11-05T09:53:43.365Z,15.13
2022-11-05T09:54:43.323Z,15.11
2022-11-05T09:55:43.309Z,15.05
2022-11-05T09:56:43.323Z,14.95
2022-11-05T09:57:43.324Z,14.84
2022-11-05T09:58:43.324Z,14.75
2022-11-05T09:59:43.310Z,14.67
2022-11-05T10:00:43.325Z,14.58
2022-11-05T10:01:43.326Z,14.52
2022-11-05T10:02:43.310Z,14.47
2022-11-05T10:03:43.311Z,14.43
2022-11-05T10:04:43.326Z,14.41
2022-11-05T10:05:43.326Z,14.41
2022-11-05T10:06:43.311Z,14.39
2022-11-05T10:07:43.325Z,14.36
2022-11-05T10:08:52.585Z,14.37
2022-11-05T10:09:43.326Z,14.41
2022-11-05T10:10:43.312Z,14.49
2022-11-05T10:11:43.326Z,14.58
2022-11-05T10:12:43.328Z,14.65
2022-11-05T10:13:43.327Z,14.71
2022-11-05T10:14:43.313Z,14.78
2022-11-05T10:15:43.327Z,14.85
2022-11-05T10:16:43.329Z,14.95
2022-11-05T10:17:43.329Z,15.05
2022-11-05T10:18:43.315Z,15.1
2022-11-05T10:19:43.329Z,15.13
2022-11-05T10:20:43.330Z,15.2
2022-11-05T10:21:43.330Z,15.28
2022-11-05T10:22:43.317Z,15.31
2022-11-05T10:23:43.330Z,15.32
2022-11-05T10:24:43.332Z,15.33
2022-11-05T10:25:43.317Z,15.36
2022-11-05T10:26:43.318Z,15.38
2022-11-05T10:27:43.332Z,15.42
2022-11-05T10:28:43.333Z,15.49
2022-11-05T10:29:43.317Z,15.51
2022-11-05T10:30:43.331Z,15.49
2022-11-05T10:31:43.333Z,15.44
2022-11-05T10:32:43.332Z,15.38
2022-11-05T10:33:43.318Z,15.33
2022-11-05T10:34:43.332Z,15.28
2022-11-05T10:35:43.334Z,15.3
2022-11-05T10:36:43.334Z,15.4
2022-11-05T10:37:43.320Z,15.54
2022-11-05T10:38:43.333Z,15.6
2022-11-05T10:39:43.336Z,15.68
2022-11-05T10:40:43.334Z,15.77
2022-11-05T10:41:43.321Z,15.85
2022-11-05T10:42:43.359Z,15.88
2022-11-05T10:43:43.337Z,15.88
2022-11-05T10:44:43.321Z,15.9
2022-11-05T10:45:43.322Z,15.95
2022-11-05T10:46:43.337Z,16
2022-11-05T10:47:43.337Z,16.04
2022-11-05T10:48:43.322Z,16.07
2022-11-05T10:49:43.376Z,16.07
2022-11-05T10:50:43.338Z,16.08
2022-11-05T10:51:43.337Z,16.11
2022-11-05T10:52:43.324Z,16.08
2022-11-05T10:53:43.338Z,16.03
2022-11-05T10:54:43.339Z,15.98
2022-11-05T10:55:43.339Z,15.95
2022-11-05T10:56:43.325Z,15.95
2022-11-05T10:57:43.340Z,15.93
2022-11-05T10:58:43.340Z,15.92
2022-11-05T10:59:43.340Z,15.94
2022-11-05T11:00:43.326Z,15.95
2022-11-05T11:01:43.341Z,16
2022-11-05T11:02:43.342Z,16.03
2022-11-05T11:03:43.341Z,16.1
2022-11-05T11:04:43.327Z,16.17
2022-11-05T11:05:43.342Z,16.21
2022-11-05T11:06:43.342Z,16.29
2022-11-05T11:07:43.328Z,16.37
2022-11-05T11:08:43.329Z,16.5
2022-11-05T11:09:43.343Z,16.62
2022-11-05T11:10:43.344Z,16.69
2022-11-05T11:11:43.329Z,16.69
2022-11-05T11:12:43.344Z,16.62
2022-11-05T11:13:43.344Z,16.53
2022-11-05T11:14:43.343Z,16.44
2022-11-05T11:15:43.330Z,16.4
2022-11-05T11:16:43.344Z,16.39
2022-11-05T11:17:43.344Z,16.43
2022-11-05T11:18:43.345Z,16.5
2022-11-05T11:19:43.331Z,16.54
2022-11-05T11:20:43.345Z,16.58
2022-11-05T11:21:43.347Z,16.66
2022-11-05T11:22:43.346Z,16.78
2022-11-05T11:23:43.332Z,16.91
2022-11-05T11:24:43.370Z,17.04
2022-11-05T11:25:43.348Z,17.18
2022-11-05T11:26:43.333Z,17.5
2022-11-05T11:27:43.335Z,17.86
2022-11-05T11:28:43.349Z,18.01
2022-11-05T11:29:43.350Z,17.95
2022-11-05T11:30:43.335Z,17.78
2022-11-05T11:31:43.349Z,17.56
2022-11-05T11:32:43.350Z,17.27
2022-11-05T11:33:43.350Z,16.95
2022-11-05T11:34:43.336Z,16.75
2022-11-05T11:35:43.350Z,16.6
2022-11-05T11:36:43.351Z,16.48
2022-11-05T11:37:43.351Z,16.4
2022-11-05T11:38:43.352Z,16.36
2022-11-05T11:39:43.351Z,16.29
2022-11-05T11:40:43.352Z,16.2
2022-11-05T11:41:43.352Z,16.1
2022-11-05T11:42:43.338Z,15.96
2022-11-05T11:43:43.352Z,15.83
2022-11-05T11:44:43.354Z,15.73
2022-11-05T11:45:43.339Z,15.66
2022-11-05T11:46:43.339Z,15.62
2022-11-05T11:47:43.354Z,15.65
2022-11-05T11:48:52.614Z,15.69
2022-11-05T11:49:43.340Z,15.71
2022-11-05T11:50:43.342Z,15.69
2022-11-05T11:51:43.356Z,15.67
2022-11-05T11:52:43.357Z,15.63
2022-11-05T11:53:43.342Z,15.59
2022-11-05T11:54:43.356Z,15.56
2022-11-05T11:55:43.357Z,15.55
2022-11-05T11:56:43.357Z,15.54
2022-11-05T11:57:43.343Z,15.54
2022-11-05T11:58:43.357Z,15.57
2022-11-05T11:59:43.358Z,15.64
2022-11-05T12:00:43.357Z,15.74
2022-11-05T12:01:43.344Z,15.9
2022-11-05T12:02:43.358Z,16.09
2022-11-05T12:03:43.360Z,16.67
2022-11-05T12:04:43.359Z,17.93
2022-11-05T12:05:43.345Z,19.34
2022-11-05T12:06:43.359Z,20.37
2022-11-05T12:07:43.362Z,21.04
2022-11-05T12:08:43.347Z,21.25
2022-11-05T12:09:43.347Z,20.99
2022-11-05T12:10:43.362Z,20.43
2022-11-05T12:11:43.362Z,19.89
2022-11-05T12:12:43.348Z,19.56
2022-11-05T12:13:43.412Z,19.18
2022-11-05T12:14:43.362Z,18.84
2022-11-05T12:15:43.364Z,18.56
2022-11-05T12:16:43.349Z,18.21
2022-11-05T12:17:43.363Z,17.89
2022-11-05T12:18:43.365Z,17.62
2022-11-05T12:19:43.364Z,17.45
2022-11-05T12:20:43.351Z,17.34
2022-11-05T12:21:43.365Z,17.26
2022-11-05T12:22:43.367Z,17.25
2022-11-05T12:23:43.365Z,17.27
2022-11-05T12:24:43.352Z,17.31
2022-11-05T12:25:43.367Z,17.34
2022-11-05T12:26:43.368Z,17.31
2022-11-05T12:27:43.368Z,17.2
2022-11-05T12:28:43.353Z,17.04
2022-11-05T12:29:43.368Z,16.92
2022-11-05T12:30:43.368Z,16.89
2022-11-05T12:31:43.354Z,16.91
2022-11-05T12:32:43.355Z,16.94
2022-11-05T12:33:43.370Z,16.98
2022-11-05T12:34:43.370Z,17.04
2022-11-05T12:35:43.355Z,17.12
2022-11-05T12:36:43.370Z,17.26
2022-11-05T12:37:43.371Z,17.62
2022-11-05T12:38:43.370Z,17.85
2022-11-05T12:39:43.357Z,17.82
2022-11-05T12:40:43.371Z,17.7
2022-11-05T12:41:43.371Z,17.6
2022-11-05T12:42:43.371Z,17.43
2022-11-05T12:43:43.358Z,17.23
2022-11-05T12:44:43.372Z,17.03
2022-11-05T12:45:43.373Z,16.91
2022-11-05T12:47:43.359Z,16.74
2022-11-05T12:48:43.374Z,16.61
2022-11-05T12:49:43.376Z,16.45
2022-11-05T12:50:43.361Z,16.29
2022-11-05T12:51:43.362Z,16.17
2022-11-05T12:52:43.376Z,16
2022-11-05T12:53:43.376Z,15.86
2022-11-05T12:54:43.362Z,15.75
2022-11-05T12:55:43.363Z,15.68
2022-11-05T12:56:43.376Z,15.62
2022-11-05T12:57:43.377Z,15.57
2022-11-05T12:58:43.363Z,15.51
2022-11-05T12:59:43.377Z,15.4
2022-11-05T13:00:43.377Z,15.31